sensor_id;sensor_type;location;lat;lon;timestamp;pressure;altitude;pressure_sealevel;temperature;humidity
16664;BME280;8445;51.270;9.434;2023-12-14T00:02:24;98445.69;;;7.77;84.09
16664;BME280;8445;51.270;9.434;2023-12-14T00:04:50;98464.03;;;7.85;84.21
16664;BME280;8445;51.270;9.434;2023-12-14T00:07:16;98458.72;;;7.85;84.18
16664;BME280;8445;51.270;9.434;2023-12-14T00:09:44;98462.00;;;7.87;83.97
16664;BME280;8445;51.270;9.434;2023-12-14T00:12:10;98465.88;;;7.84;84.16
16664;BME280;8445;51.270;9.434;2023-12-14T00:14:36;98467.91;;;7.82;84.12
16664;BME280;8445;51.270;9.434;2023-12-14T00:17:02;98476.28;;;7.86;84.17
16664;BME280;8445;51.270;9.434;2023-12-14T00:19:28;98479.94;;;7.85;83.93
16664;BME280;8445;51.270;9.434;2023-12-14T00:21:55;98479.75;;;7.86;84.11
16664;BME280;8445;51.270;9.434;2023-12-14T00:24:21;98492.63;;;7.89;84.09
16664;BME280;8445;51.270;9.434;2023-12-14T00:26:47;98477.91;;;7.80;83.99
16664;BME280;8445;51.270;9.434;2023-12-14T00:29:13;98485.84;;;7.87;84.16
16664;BME280;8445;51.270;9.434;2023-12-14T00:31:39;98497.72;;;7.91;84.22
16664;BME280;8445;51.270;9.434;2023-12-14T00:34:05;98490.75;;;7.83;84.41
16664;BME280;8445;51.270;9.434;2023-12-14T00:36:32;98509.97;;;7.92;84.20
16664;BME280;8445;51.270;9.434;2023-12-14T00:38:58;98516.91;;;7.93;84.20
16664;BME280;8445;51.270;9.434;2023-12-14T00:41:24;98517.50;;;7.95;84.23
16664;BME280;8445;51.270;9.434;2023-12-14T00:43:50;98520.16;;;7.95;84.20
16664;BME280;8445;51.270;9.434;2023-12-14T00:46:16;98522.81;;;7.95;83.92
16664;BME280;8445;51.270;9.434;2023-12-14T00:48:42;98528.94;;;7.95;84.00
16664;BME280;8445;51.270;9.434;2023-12-14T00:51:08;98519.31;;;7.88;83.78
16664;BME280;8445;51.270;9.434;2023-12-14T00:53:34;98529.34;;;7.92;84.14
16664;BME280;8445;51.270;9.434;2023-12-14T00:55:59;98524.59;;;7.88;83.94
16664;BME280;8445;51.270;9.434;2023-12-14T00:58:26;98532.00;;;7.92;84.20
16664;BME280;8445;51.270;9.434;2023-12-14T01:00:52;98524.81;;;7.86;84.09
16664;BME280;8445;51.270;9.434;2023-12-14T01:03:20;98529.09;;;7.87;84.03
16664;BME280;8445;51.270;9.434;2023-12-14T01:05:46;98547.06;;;7.92;84.04
16664;BME280;8445;51.270;9.434;2023-12-14T01:08:12;98553.41;;;7.91;84.18
16664;BME280;8445;51.270;9.434;2023-12-14T01:10:38;98547.47;;;7.89;84.27
16664;BME280;8445;51.270;9.434;2023-12-14T01:13:05;98551.31;;;7.86;84.18
16664;BME280;8445;51.270;9.434;2023-12-14T01:15:31;98564.81;;;7.91;84.00
16664;BME280;8445;51.270;9.434;2023-12-14T01:17:57;98563.56;;;7.87;84.21
16664;BME280;8445;51.270;9.434;2023-12-14T01:20:23;98564.56;;;7.86;84.30
16664;BME280;8445;51.270;9.434;2023-12-14T01:22:49;98574.59;;;7.91;84.23
16664;BME280;8445;51.270;9.434;2023-12-14T01:25:15;98583.56;;;7.90;83.87
16664;BME280;8445;51.270;9.434;2023-12-14T01:27:41;98580.69;;;7.85;84.27
16664;BME280;8445;51.270;9.434;2023-12-14T01:30:07;98588.22;;;7.88;84.07
16664;BME280;8445;51.270;9.434;2023-12-14T01:32:33;98589.91;;;7.89;84.27
16664;BME280;8445;51.270;9.434;2023-12-14T01:34:59;98587.25;;;7.89;84.24
16664;BME280;8445;51.270;9.434;2023-12-14T01:37:25;98588.63;;;7.85;83.86
16664;BME280;8445;51.270;9.434;2023-12-14T01:39:51;98596.03;;;7.89;84.27
16664;BME280;8445;51.270;9.434;2023-12-14T01:42:17;98585.97;;;7.85;84.30
16664;BME280;8445;51.270;9.434;2023-12-14T01:44:43;98595.38;;;7.87;83.94
16664;BME280;8445;51.270;9.434;2023-12-14T01:47:09;98589.66;;;7.84;84.11
16664;BME280;8445;51.270;9.434;2023-12-14T01:49:35;98611.31;;;7.94;84.29
16664;BME280;8445;51.270;9.434;2023-12-14T01:52:01;98614.78;;;7.94;83.89
16664;BME280;8445;51.270;9.434;2023-12-14T01:54:27;98606.44;;;7.91;84.08
16664;BME280;8445;51.270;9.434;2023-12-14T01:56:53;98620.28;;;7.93;84.05
16664;BME280;8445;51.270;9.434;2023-12-14T01:59:20;98629.50;;;7.97;84.56
16664;BME280;8445;51.270;9.434;2023-12-14T02:01:52;98625.59;;;7.93;84.41
16664;BME280;8445;51.270;9.434;2023-12-14T02:04:19;98632.16;;;7.97;84.33
16664;BME280;8445;51.270;9.434;2023-12-14T02:06:45;98635.63;;;7.97;84.15
16664;BME280;8445;51.270;9.434;2023-12-14T02:09:11;98646.63;;;8.01;84.15
16664;BME280;8445;51.270;9.434;2023-12-14T02:11:37;98639.53;;;8.02;84.07
16664;BME280;8445;51.270;9.434;2023-12-14T02:14:06;98644.19;;;7.99;84.08
16664;BME280;8445;51.270;9.434;2023-12-14T02:16:32;98643.16;;;8.00;84.18
16664;BME280;8445;51.270;9.434;2023-12-14T02:18:58;98639.09;;;7.98;84.11
16664;BME280;8445;51.270;9.434;2023-12-14T02:21:24;98650.75;;;8.04;84.13
16664;BME280;8445;51.270;9.434;2023-12-14T02:23:51;98650.97;;;8.02;84.30
16664;BME280;8445;51.270;9.434;2023-12-14T02:26:17;98662.94;;;7.98;84.16
16664;BME280;8445;51.270;9.434;2023-12-14T02:28:43;98652.72;;;7.95;84.25
16664;BME280;8445;51.270;9.434;2023-12-14T02:31:09;98646.19;;;7.91;84.15
16664;BME280;8445;51.270;9.434;2023-12-14T02:33:35;98653.75;;;7.94;84.44
16664;BME280;8445;51.270;9.434;2023-12-14T02:36:01;98650.06;;;7.88;84.27
16664;BME280;8445;51.270;9.434;2023-12-14T02:38:29;98664.34;;;7.94;84.33
16664;BME280;8445;51.270;9.434;2023-12-14T02:40:55;98654.78;;;7.93;84.51
16664;BME280;8445;51.270;9.434;2023-12-14T02:43:21;98662.72;;;7.93;84.53
16664;BME280;8445;51.270;9.434;2023-12-14T02:45:49;98661.09;;;7.92;84.32
16664;BME280;8445;51.270;9.434;2023-12-14T02:48:15;98655.72;;;7.85;84.66
16664;BME280;8445;51.270;9.434;2023-12-14T02:50:41;98677.22;;;7.97;84.63
16664;BME280;8445;51.270;9.434;2023-12-14T02:53:07;98657.34;;;7.86;84.31
16664;BME280;8445;51.270;9.434;2023-12-14T02:55:33;98675.59;;;7.96;84.23
16664;BME280;8445;51.270;9.434;2023-12-14T02:57:59;98691.28;;;7.97;84.46
16664;BME280;8445;51.270;9.434;2023-12-14T03:00:25;98686.16;;;7.89;84.28
16664;BME280;8445;51.270;9.434;2023-12-14T03:02:51;98703.91;;;7.89;84.72
16664;BME280;8445;51.270;9.434;2023-12-14T03:05:17;98682.00;;;7.80;84.92
16664;BME280;8445;51.270;9.434;2023-12-14T03:07:43;98699.94;;;7.78;84.39
16664;BME280;8445;51.270;9.434;2023-12-14T03:10:09;98709.66;;;7.71;84.87
16664;BME280;8445;51.270;9.434;2023-12-14T03:12:35;98721.84;;;7.65;85.50
16664;BME280;8445;51.270;9.434;2023-12-14T03:15:01;98716.66;;;7.57;85.10
16664;BME280;8445;51.270;9.434;2023-12-14T03:17:27;98709.50;;;7.51;85.19
16664;BME280;8445;51.270;9.434;2023-12-14T03:19:53;98719.19;;;7.44;84.87
16664;BME280;8445;51.270;9.434;2023-12-14T03:22:19;98727.09;;;7.37;85.18
16664;BME280;8445;51.270;9.434;2023-12-14T03:24:45;98728.72;;;7.38;85.10
16664;BME280;8445;51.270;9.434;2023-12-14T03:27:11;98716.09;;;7.19;85.08
16664;BME280;8445;51.270;9.434;2023-12-14T03:29:37;98751.84;;;7.30;85.17
16664;BME280;8445;51.270;9.434;2023-12-14T03:32:03;98743.47;;;7.26;85.35
16664;BME280;8445;51.270;9.434;2023-12-14T03:34:29;98735.38;;;7.13;85.05
16664;BME280;8445;51.270;9.434;2023-12-14T03:36:55;98750.31;;;7.21;85.34
16664;BME280;8445;51.270;9.434;2023-12-14T03:39:21;98751.66;;;7.10;85.23
16664;BME280;8445;51.270;9.434;2023-12-14T03:41:47;98773.09;;;7.15;85.13
16664;BME280;8445;51.270;9.434;2023-12-14T03:44:13;98780.59;;;7.11;85.14
16664;BME280;8445;51.270;9.434;2023-12-14T03:46:39;98779.78;;;7.11;85.42
16664;BME280;8445;51.270;9.434;2023-12-14T03:49:05;98761.78;;;7.06;85.31
16664;BME280;8445;51.270;9.434;2023-12-14T03:51:32;98763.78;;;7.04;85.27
16664;BME280;8445;51.270;9.434;2023-12-14T03:53:57;98776.84;;;7.06;85.48
16664;BME280;8445;51.270;9.434;2023-12-14T03:56:23;98774.56;;;7.03;85.25
16664;BME280;8445;51.270;9.434;2023-12-14T03:58:49;98784.97;;;7.04;85.28
16664;BME280;8445;51.270;9.434;2023-12-14T04:01:20;98795.94;;;7.01;85.30
16664;BME280;8445;51.270;9.434;2023-12-14T04:03:47;98795.03;;;6.94;85.07
16664;BME280;8445;51.270;9.434;2023-12-14T04:06:15;98796.59;;;6.89;85.16
16664;BME280;8445;51.270;9.434;2023-12-14T04:08:41;98789.66;;;6.73;85.30
16664;BME280;8445;51.270;9.434;2023-12-14T04:11:08;98803.72;;;6.73;85.45
16664;BME280;8445;51.270;9.434;2023-12-14T04:13:34;98814.19;;;6.67;85.69
16664;BME280;8445;51.270;9.434;2023-12-14T04:16:00;98821.06;;;6.61;85.50
16664;BME280;8445;51.270;9.434;2023-12-14T04:18:27;98790.69;;;6.42;85.66
16664;BME280;8445;51.270;9.434;2023-12-14T04:20:52;98824.78;;;6.52;85.92
16664;BME280;8445;51.270;9.434;2023-12-14T04:23:18;98828.59;;;6.49;86.05
16664;BME280;8445;51.270;9.434;2023-12-14T04:25:45;98830.81;;;6.46;85.95
16664;BME280;8445;51.270;9.434;2023-12-14T04:28:11;98838.91;;;6.44;85.76
16664;BME280;8445;51.270;9.434;2023-12-14T04:30:36;98837.28;;;6.43;86.02
16664;BME280;8445;51.270;9.434;2023-12-14T04:33:02;98841.94;;;6.41;85.77
16664;BME280;8445;51.270;9.434;2023-12-14T04:35:28;98851.22;;;6.37;85.75
16664;BME280;8445;51.270;9.434;2023-12-14T04:37:54;98852.84;;;6.38;85.67
16664;BME280;8445;51.270;9.434;2023-12-14T04:40:20;98853.66;;;6.39;85.83
16664;BME280;8445;51.270;9.434;2023-12-14T04:42:46;98853.22;;;6.35;85.86
16664;BME280;8445;51.270;9.434;2023-12-14T04:45:12;98868.72;;;6.38;85.75
16664;BME280;8445;51.270;9.434;2023-12-14T04:47:38;98863.44;;;6.38;85.77
16664;BME280;8445;51.270;9.434;2023-12-14T04:50:05;98865.63;;;6.35;85.83
16664;BME280;8445;51.270;9.434;2023-12-14T04:52:31;98880.44;;;6.44;85.53
16664;BME280;8445;51.270;9.434;2023-12-14T04:54:57;98886.53;;;6.44;85.59
16664;BME280;8445;51.270;9.434;2023-12-14T04:57:22;98877.13;;;6.42;85.42
16664;BME280;8445;51.270;9.434;2023-12-14T04:59:48;98889.06;;;6.38;85.17
16664;BME280;8445;51.270;9.434;2023-12-14T05:02:14;98893.25;;;6.32;85.30
16664;BME280;8445;51.270;9.434;2023-12-14T05:04:40;98900.59;;;6.22;85.33
16664;BME280;8445;51.270;9.434;2023-12-14T05:07:06;98901.97;;;6.18;85.73
16664;BME280;8445;51.270;9.434;2023-12-14T05:09:32;98913.22;;;6.12;85.41
16664;BME280;8445;51.270;9.434;2023-12-14T05:11:58;98911.28;;;6.06;85.76
16664;BME280;8445;51.270;9.434;2023-12-14T05:14:24;98920.22;;;6.05;85.40
16664;BME280;8445;51.270;9.434;2023-12-14T05:16:50;98918.44;;;5.97;85.54
16664;BME280;8445;51.270;9.434;2023-12-14T05:19:17;98938.09;;;6.03;85.78
16664;BME280;8445;51.270;9.434;2023-12-14T05:21:43;98943.88;;;5.98;85.97
16664;BME280;8445;51.270;9.434;2023-12-14T05:24:10;98942.28;;;5.89;86.07
16664;BME280;8445;51.270;9.434;2023-12-14T05:26:35;98945.06;;;5.87;86.09
16664;BME280;8445;51.270;9.434;2023-12-14T05:29:01;98958.28;;;5.96;86.32
16664;BME280;8445;51.270;9.434;2023-12-14T05:31:27;98966.19;;;5.96;86.17
16664;BME280;8445;51.270;9.434;2023-12-14T05:33:53;98964.19;;;5.98;86.00
16664;BME280;8445;51.270;9.434;2023-12-14T05:36:19;98962.72;;;5.95;86.24
16664;BME280;8445;51.270;9.434;2023-12-14T05:38:45;98962.59;;;5.88;86.02
16664;BME280;8445;51.270;9.434;2023-12-14T05:41:11;98974.47;;;5.92;85.52
16664;BME280;8445;51.270;9.434;2023-12-14T05:43:37;98971.19;;;5.82;85.93
16664;BME280;8445;51.270;9.434;2023-12-14T05:46:04;98984.88;;;5.86;85.70
16664;BME280;8445;51.270;9.434;2023-12-14T05:48:30;98992.50;;;5.81;85.86
16664;BME280;8445;51.270;9.434;2023-12-14T05:50:57;99005.53;;;5.82;86.02
16664;BME280;8445;51.270;9.434;2023-12-14T05:53:22;99002.28;;;5.72;86.35
16664;BME280;8445;51.270;9.434;2023-12-14T05:55:48;99015.84;;;5.69;86.41
16664;BME280;8445;51.270;9.434;2023-12-14T05:58:15;99019.47;;;5.68;86.17
16664;BME280;8445;51.270;9.434;2023-12-14T06:00:41;99028.53;;;5.74;86.36
16664;BME280;8445;51.270;9.434;2023-12-14T06:03:06;99030.22;;;5.67;86.37
16664;BME280;8445;51.270;9.434;2023-12-14T06:05:32;99030.06;;;5.60;86.73
16664;BME280;8445;51.270;9.434;2023-12-14T06:07:58;99040.97;;;5.65;86.82
16664;BME280;8445;51.270;9.434;2023-12-14T06:10:24;99054.34;;;5.63;86.92
16664;BME280;8445;51.270;9.434;2023-12-14T06:12:50;99045.91;;;5.60;86.41
16664;BME280;8445;51.270;9.434;2023-12-14T06:15:16;99052.88;;;5.61;86.57
16664;BME280;8445;51.270;9.434;2023-12-14T06:17:42;99051.38;;;5.58;86.35
16664;BME280;8445;51.270;9.434;2023-12-14T06:20:08;99055.69;;;5.51;86.21
16664;BME280;8445;51.270;9.434;2023-12-14T06:22:38;99067.09;;;5.52;86.46
16664;BME280;8445;51.270;9.434;2023-12-14T06:25:05;99068.06;;;5.51;85.97
16664;BME280;8445;51.270;9.434;2023-12-14T06:27:31;99063.78;;;5.50;86.04
16664;BME280;8445;51.270;9.434;2023-12-14T06:29:57;99072.03;;;5.47;85.66
16664;BME280;8445;51.270;9.434;2023-12-14T06:32:23;99077.00;;;5.50;86.15
16664;BME280;8445;51.270;9.434;2023-12-14T06:34:49;99081.28;;;5.51;85.85
16664;BME280;8445;51.270;9.434;2023-12-14T06:37:18;99091.34;;;5.47;85.23
16664;BME280;8445;51.270;9.434;2023-12-14T06:39:43;99093.31;;;5.45;85.52
16664;BME280;8445;51.270;9.434;2023-12-14T06:42:09;99097.78;;;5.45;85.61
16664;BME280;8445;51.270;9.434;2023-12-14T06:44:37;99094.66;;;5.41;85.71
16664;BME280;8445;51.270;9.434;2023-12-14T06:47:03;99113.97;;;5.42;85.78
16664;BME280;8445;51.270;9.434;2023-12-14T06:49:29;99117.59;;;5.41;85.81
16664;BME280;8445;51.270;9.434;2023-12-14T06:51:55;99117.28;;;5.36;85.74
16664;BME280;8445;51.270;9.434;2023-12-14T06:54:21;99119.59;;;5.30;85.86
16664;BME280;8445;51.270;9.434;2023-12-14T06:56:47;99103.25;;;5.19;86.02
16664;BME280;8445;51.270;9.434;2023-12-14T06:59:13;99125.72;;;5.23;85.99
16664;BME280;8445;51.270;9.434;2023-12-14T07:01:39;99126.84;;;5.20;86.08
16664;BME280;8445;51.270;9.434;2023-12-14T07:04:05;99118.13;;;5.12;86.21
16664;BME280;8445;51.270;9.434;2023-12-14T07:06:33;99119.28;;;5.09;86.24
16664;BME280;8445;51.270;9.434;2023-12-14T07:09:00;99127.84;;;5.11;86.17
16664;BME280;8445;51.270;9.434;2023-12-14T07:11:28;99117.09;;;5.04;86.43
16664;BME280;8445;51.270;9.434;2023-12-14T07:13:53;99135.28;;;5.08;86.64
16664;BME280;8445;51.270;9.434;2023-12-14T07:16:19;99145.66;;;5.09;86.55
16664;BME280;8445;51.270;9.434;2023-12-14T07:18:46;99139.22;;;5.03;86.29
16664;BME280;8445;51.270;9.434;2023-12-14T07:21:13;99135.75;;;5.03;86.16
16664;BME280;8445;51.270;9.434;2023-12-14T07:23:39;99137.41;;;5.04;85.79
16664;BME280;8445;51.270;9.434;2023-12-14T07:26:05;99137.72;;;5.01;86.23
16664;BME280;8445;51.270;9.434;2023-12-14T07:28:31;99151.41;;;5.04;85.83
16664;BME280;8445;51.270;9.434;2023-12-14T07:30:57;99148.94;;;5.03;86.05
16664;BME280;8445;51.270;9.434;2023-12-14T07:33:23;99177.50;;;5.16;86.13
16664;BME280;8445;51.270;9.434;2023-12-14T07:35:49;99173.72;;;5.10;85.61
16664;BME280;8445;51.270;9.434;2023-12-14T07:38:16;99157.53;;;4.97;85.83
16664;BME280;8445;51.270;9.434;2023-12-14T07:40:42;99184.28;;;5.10;85.79
16664;BME280;8445;51.270;9.434;2023-12-14T07:43:08;99190.03;;;5.14;85.42
16664;BME280;8445;51.270;9.434;2023-12-14T07:45:34;99188.91;;;5.08;85.76
16664;BME280;8445;51.270;9.434;2023-12-14T07:48:00;99203.41;;;5.20;86.05
16664;BME280;8445;51.270;9.434;2023-12-14T07:50:26;99217.63;;;5.27;85.60
16664;BME280;8445;51.270;9.434;2023-12-14T07:52:52;99209.38;;;5.22;85.48
16664;BME280;8445;51.270;9.434;2023-12-14T07:55:20;99228.84;;;5.29;85.39
16664;BME280;8445;51.270;9.434;2023-12-14T07:57:46;99213.31;;;5.26;85.46
16664;BME280;8445;51.270;9.434;2023-12-14T08:00:12;99224.88;;;5.33;85.63
16664;BME280;8445;51.270;9.434;2023-12-14T08:02:38;99230.84;;;5.36;85.16
16664;BME280;8445;51.270;9.434;2023-12-14T08:05:05;99240.41;;;5.37;85.18
16664;BME280;8445;51.270;9.434;2023-12-14T08:07:32;99248.81;;;5.40;85.71
16664;BME280;8445;51.270;9.434;2023-12-14T08:09:59;99243.06;;;5.37;85.19
16664;BME280;8445;51.270;9.434;2023-12-14T08:12:25;99251.28;;;5.42;85.07
16664;BME280;8445;51.270;9.434;2023-12-14T08:14:51;99247.31;;;5.29;85.22
16664;BME280;8445;51.270;9.434;2023-12-14T08:17:18;99257.53;;;5.32;85.03
16664;BME280;8445;51.270;9.434;2023-12-14T08:19:44;99250.44;;;5.25;85.67
16664;BME280;8445;51.270;9.434;2023-12-14T08:22:11;99275.88;;;5.34;85.66
16664;BME280;8445;51.270;9.434;2023-12-14T08:24:39;99263.16;;;5.29;85.62
16664;BME280;8445;51.270;9.434;2023-12-14T08:27:05;99282.00;;;5.34;85.07
16664;BME280;8445;51.270;9.434;2023-12-14T08:29:31;99285.59;;;5.33;85.23
16664;BME280;8445;51.270;9.434;2023-12-14T08:31:56;99293.06;;;5.38;85.87
16664;BME280;8445;51.270;9.434;2023-12-14T08:34:25;99276.38;;;5.38;86.06
16664;BME280;8445;51.270;9.434;2023-12-14T08:36:51;99290.94;;;5.50;86.11
16664;BME280;8445;51.270;9.434;2023-12-14T08:39:18;99296.88;;;5.52;85.62
16664;BME280;8445;51.270;9.434;2023-12-14T08:41:47;99327.59;;;5.61;85.61
16664;BME280;8445;51.270;9.434;2023-12-14T08:44:15;99335.53;;;5.61;85.47
16664;BME280;8445;51.270;9.434;2023-12-14T08:46:44;99328.25;;;5.55;85.49
16664;BME280;8445;51.270;9.434;2023-12-14T08:49:12;99332.03;;;5.52;85.40
16664;BME280;8445;51.270;9.434;2023-12-14T08:51:39;99338.13;;;5.45;85.79
16664;BME280;8445;51.270;9.434;2023-12-14T08:54:06;99353.31;;;5.43;85.25
16664;BME280;8445;51.270;9.434;2023-12-14T08:56:33;99344.22;;;5.37;85.24
16664;BME280;8445;51.270;9.434;2023-12-14T08:58:59;99358.59;;;5.34;85.62
16664;BME280;8445;51.270;9.434;2023-12-14T09:01:26;99362.84;;;5.27;85.09
16664;BME280;8445;51.270;9.434;2023-12-14T09:03:52;99376.38;;;5.32;84.78
16664;BME280;8445;51.270;9.434;2023-12-14T09:06:18;99386.09;;;5.32;84.98
16664;BME280;8445;51.270;9.434;2023-12-14T09:08:45;99378.50;;;5.29;85.21
16664;BME280;8445;51.270;9.434;2023-12-14T09:11:11;99389.06;;;5.29;85.36
16664;BME280;8445;51.270;9.434;2023-12-14T09:13:38;99404.09;;;5.28;84.61
16664;BME280;8445;51.270;9.434;2023-12-14T09:16:04;99412.13;;;5.19;84.54
16664;BME280;8445;51.270;9.434;2023-12-14T09:18:30;99391.41;;;4.98;84.54
16664;BME280;8445;51.270;9.434;2023-12-14T09:20:56;99409.72;;;4.99;84.37
16664;BME280;8445;51.270;9.434;2023-12-14T09:23:22;99423.41;;;4.95;85.00
16664;BME280;8445;51.270;9.434;2023-12-14T09:25:48;99422.69;;;4.85;85.35
16664;BME280;8445;51.270;9.434;2023-12-14T09:28:15;99429.44;;;4.87;85.71
16664;BME280;8445;51.270;9.434;2023-12-14T09:30:41;99441.81;;;4.87;85.38
16664;BME280;8445;51.270;9.434;2023-12-14T09:33:07;99447.59;;;4.90;85.52
16664;BME280;8445;51.270;9.434;2023-12-14T09:35:35;99445.28;;;4.87;84.87
16664;BME280;8445;51.270;9.434;2023-12-14T09:38:03;99443.78;;;4.85;84.11
16664;BME280;8445;51.270;9.434;2023-12-14T09:40:30;99443.56;;;4.78;83.95
16664;BME280;8445;51.270;9.434;2023-12-14T09:42:58;99447.69;;;4.81;84.44
16664;BME280;8445;51.270;9.434;2023-12-14T09:45:27;99452.16;;;4.80;83.90
16664;BME280;8445;51.270;9.434;2023-12-14T09:47:54;99442.69;;;4.69;84.21
16664;BME280;8445;51.270;9.434;2023-12-14T09:50:26;99446.75;;;4.64;84.31
16664;BME280;8445;51.270;9.434;2023-12-14T09:52:52;99460.19;;;4.70;83.96
16664;BME280;8445;51.270;9.434;2023-12-14T09:55:18;99468.94;;;4.71;84.19
16664;BME280;8445;51.270;9.434;2023-12-14T09:57:44;99459.97;;;4.64;84.27
16664;BME280;8445;51.270;9.434;2023-12-14T10:00:11;99479.16;;;4.74;84.01
16664;BME280;8445;51.270;9.434;2023-12-14T10:02:40;99469.44;;;4.74;83.82
16664;BME280;8445;51.270;9.434;2023-12-14T10:05:10;99444.28;;;4.62;83.91
16664;BME280;8445;51.270;9.434;2023-12-14T10:07:43;99474.94;;;4.81;84.07
16664;BME280;8445;51.270;9.434;2023-12-14T10:10:12;99475.81;;;4.90;84.25
16664;BME280;8445;51.270;9.434;2023-12-14T10:12:51;99471.75;;;4.95;84.02
16664;BME280;8445;51.270;9.434;2023-12-14T10:15:18;99473.69;;;4.93;83.46
16664;BME280;8445;51.270;9.434;2023-12-14T10:17:44;99495.69;;;5.02;83.69
16664;BME280;8445;51.270;9.434;2023-12-14T10:20:20;99481.47;;;4.95;83.38
16664;BME280;8445;51.270;9.434;2023-12-14T10:22:50;99492.03;;;4.95;83.15
16664;BME280;8445;51.270;9.434;2023-12-14T10:25:19;99495.19;;;4.98;82.63
16664;BME280;8445;51.270;9.434;2023-12-14T10:27:50;99492.84;;;4.95;82.71
16664;BME280;8445;51.270;9.434;2023-12-14T10:30:18;99490.66;;;4.91;83.30
16664;BME280;8445;51.270;9.434;2023-12-14T10:32:48;99511.44;;;4.94;83.05
16664;BME280;8445;51.270;9.434;2023-12-14T10:35:16;99515.06;;;4.93;83.08
16664;BME280;8445;51.270;9.434;2023-12-14T10:37:43;99505.97;;;4.87;83.17
16664;BME280;8445;51.270;9.434;2023-12-14T10:40:13;99504.84;;;4.90;82.93
16664;BME280;8445;51.270;9.434;2023-12-14T10:42:44;99522.41;;;4.99;82.76
16664;BME280;8445;51.270;9.434;2023-12-14T10:45:14;99531.13;;;4.99;82.71
16664;BME280;8445;51.270;9.434;2023-12-14T10:47:46;99529.34;;;5.00;82.84
16664;BME280;8445;51.270;9.434;2023-12-14T10:50:13;99522.00;;;4.94;82.85
16664;BME280;8445;51.270;9.434;2023-12-14T10:52:40;99542.88;;;5.05;83.21
16664;BME280;8445;51.270;9.434;2023-12-14T10:55:18;99533.63;;;5.01;82.54
16664;BME280;8445;51.270;9.434;2023-12-14T10:57:46;99534.97;;;5.05;81.63
16664;BME280;8445;51.270;9.434;2023-12-14T11:00:15;99541.63;;;5.09;82.16
16664;BME280;8445;51.270;9.434;2023-12-14T11:02:46;99552.84;;;5.11;82.22
16664;BME280;8445;51.270;9.434;2023-12-14T11:05:16;99558.28;;;5.10;82.47
16664;BME280;8445;51.270;9.434;2023-12-14T11:07:49;99542.22;;;5.03;82.63
16664;BME280;8445;51.270;9.434;2023-12-14T11:10:41;99564.66;;;5.07;82.42
16664;BME280;8445;51.270;9.434;2023-12-14T11:13:10;99564.81;;;5.05;81.72
16664;BME280;8445;51.270;9.434;2023-12-14T11:15:48;99570.88;;;4.98;81.92
16664;BME280;8445;51.270;9.434;2023-12-14T11:18:24;99586.78;;;4.88;82.05
16664;BME280;8445;51.270;9.434;2023-12-14T11:21:00;99586.50;;;4.73;81.68
16664;BME280;8445;51.270;9.434;2023-12-14T11:23:35;99587.84;;;4.60;82.10
16664;BME280;8445;51.270;9.434;2023-12-14T11:26:09;99608.44;;;4.56;82.36
16664;BME280;8445;51.270;9.434;2023-12-14T11:28:38;99592.50;;;4.48;83.67
16664;BME280;8445;51.270;9.434;2023-12-14T11:31:11;99612.72;;;4.57;83.99
16664;BME280;8445;51.270;9.434;2023-12-14T11:33:38;99593.88;;;4.52;84.16
16664;BME280;8445;51.270;9.434;2023-12-14T11:36:04;99607.16;;;4.60;84.16
16664;BME280;8445;51.270;9.434;2023-12-14T11:38:31;99619.72;;;4.66;83.60
16664;BME280;8445;51.270;9.434;2023-12-14T11:41:01;99614.59;;;4.65;83.77
16664;BME280;8445;51.270;9.434;2023-12-14T11:43:27;99616.25;;;4.66;83.70
16664;BME280;8445;51.270;9.434;2023-12-14T11:45:54;99623.34;;;4.65;83.42
16664;BME280;8445;51.270;9.434;2023-12-14T11:48:21;99612.72;;;4.57;83.16
16664;BME280;8445;51.270;9.434;2023-12-14T11:50:47;99609.13;;;4.58;83.52
16664;BME280;8445;51.270;9.434;2023-12-14T11:53:13;99628.34;;;4.68;83.41
16664;BME280;8445;51.270;9.434;2023-12-14T11:55:41;99615.44;;;4.65;83.22
16664;BME280;8445;51.270;9.434;2023-12-14T11:58:08;99624.06;;;4.67;82.81
16664;BME280;8445;51.270;9.434;2023-12-14T12:00:36;99630.00;;;4.69;82.85
16664;BME280;8445;51.270;9.434;2023-12-14T12:03:12;99641.53;;;4.68;82.80
16664;BME280;8445;51.270;9.434;2023-12-14T12:08:08;99634.66;;;4.75;82.31
16664;BME280;8445;51.270;9.434;2023-12-14T12:10:41;99633.00;;;4.74;82.21
16664;BME280;8445;51.270;9.434;2023-12-14T12:13:15;99635.81;;;4.73;82.17
16664;BME280;8445;51.270;9.434;2023-12-14T12:15:42;99613.72;;;4.56;82.10
16664;BME280;8445;51.270;9.434;2023-12-14T12:18:11;99646.09;;;4.66;82.12
16664;BME280;8445;51.270;9.434;2023-12-14T12:20:37;99649.88;;;4.64;82.14
16664;BME280;8445;51.270;9.434;2023-12-14T12:23:03;99647.38;;;4.62;81.73
16664;BME280;8445;51.270;9.434;2023-12-14T12:25:30;99653.19;;;4.66;81.98
16664;BME280;8445;51.270;9.434;2023-12-14T12:27:58;99650.72;;;4.64;81.52
16664;BME280;8445;51.270;9.434;2023-12-14T12:30:27;99651.47;;;4.57;81.82
16664;BME280;8445;51.270;9.434;2023-12-14T12:32:53;99644.59;;;4.46;81.88
16664;BME280;8445;51.270;9.434;2023-12-14T12:35:22;99661.72;;;4.60;81.51
16664;BME280;8445;51.270;9.434;2023-12-14T12:37:49;99665.34;;;4.59;81.93
16664;BME280;8445;51.270;9.434;2023-12-14T12:40:23;99671.28;;;4.61;81.85
16664;BME280;8445;51.270;9.434;2023-12-14T12:42:52;99674.19;;;4.67;81.75
16664;BME280;8445;51.270;9.434;2023-12-14T12:45:18;99681.38;;;4.65;81.62
16664;BME280;8445;51.270;9.434;2023-12-14T12:47:45;99669.47;;;4.61;81.92
16664;BME280;8445;51.270;9.434;2023-12-14T12:50:11;99685.69;;;4.66;81.30
16664;BME280;8445;51.270;9.434;2023-12-14T12:52:38;99674.06;;;4.59;80.25
16664;BME280;8445;51.270;9.434;2023-12-14T12:55:07;99681.53;;;4.64;80.30
16664;BME280;8445;51.270;9.434;2023-12-14T12:57:33;99685.44;;;4.60;80.96
16664;BME280;8445;51.270;9.434;2023-12-14T12:59:59;99689.44;;;4.64;81.07
16664;BME280;8445;51.270;9.434;2023-12-14T13:02:25;99688.63;;;4.63;80.58
16664;BME280;8445;51.270;9.434;2023-12-14T13:04:51;99685.00;;;4.64;81.09
16664;BME280;8445;51.270;9.434;2023-12-14T13:07:17;99690.00;;;4.67;81.10
16664;BME280;8445;51.270;9.434;2023-12-14T13:09:44;99689.09;;;4.77;80.74
16664;BME280;8445;51.270;9.434;2023-12-14T13:12:10;99692.72;;;4.75;81.01
16664;BME280;8445;51.270;9.434;2023-12-14T13:14:36;99691.88;;;4.75;80.15
16664;BME280;8445;51.270;9.434;2023-12-14T13:17:02;99680.56;;;4.65;80.50
16664;BME280;8445;51.270;9.434;2023-12-14T13:19:28;99701.75;;;4.73;80.71
16664;BME280;8445;51.270;9.434;2023-12-14T13:21:55;99703.88;;;4.69;80.41
16664;BME280;8445;51.270;9.434;2023-12-14T13:24:24;99709.00;;;4.71;80.90